Time;durP1;ratioP1;P1;durP2;ratioP2;P2;SDS_P1;SDS_P2;PMS_P1;PMS_P2;Temp;Humidity;BMP_temperature;BMP_pressure;BME280_temperature;BME280_humidity;BME280_pressure;Samples;Min_cycle;Max_cycle;Signal;HPM_P1;HPM_P2
2022/12/03 00:02:15;;;;;;;43.33;24.55;;;2.70;99.90;;;;;;5086066;28;20490;-71
2022/12/03 00:04:41;;;;;;;39.92;22.83;;;2.70;99.90;;;;;;5077776;28;20139;-71
2022/12/03 00:07:07;;;;;;;40.20;21.05;;;2.80;99.90;;;;;;5094110;28;20141;-71
2022/12/03 00:09:32;;;;;;;42.80;23.00;;;2.70;99.90;;;;;;5064857;28;20056;-71
2022/12/03 00:11:58;;;;;;;38.97;22.83;;;2.70;99.90;;;;;;5080707;28;20040;-71
2022/12/03 00:14:24;;;;;;;42.67;23.50;;;2.80;99.90;;;;;;5095205;28;20117;-70
2022/12/03 00:16:49;;;;;;;44.28;24.15;;;2.70;99.90;;;;;;5078250;28;20040;-71
2022/12/03 00:19:15;;;;;;;42.67;25.50;;;2.70;99.90;;;;;;5077347;28;20550;-71
2022/12/03 00:21:41;;;;;;;43.95;23.42;;;2.70;99.90;;;;;;5079829;28;20044;-71
2022/12/03 00:24:07;;;;;;;41.22;22.35;;;2.70;99.90;;;;;;5058750;28;20120;-71
2022/12/03 00:26:32;;;;;;;43.83;23.13;;;2.70;99.90;;;;;;5072381;28;20058;-71
2022/12/03 00:28:58;;;;;;;40.05;22.17;;;2.70;99.90;;;;;;5082623;28;20048;-71
2022/12/03 00:31:24;;;;;;;47.00;23.58;;;2.70;99.90;;;;;;5094862;28;20475;-71
2022/12/03 00:33:51;;;;;;;41.92;22.92;;;2.70;99.90;;;;;;5077478;28;20044;-71
2022/12/03 00:36:17;;;;;;;41.72;23.42;;;2.70;99.90;;;;;;5067486;28;20063;-71
2022/12/03 00:38:42;;;;;;;41.75;24.17;;;2.70;99.90;;;;;;5060031;28;20052;-72
2022/12/03 00:41:08;;;;;;;41.25;22.60;;;2.90;99.90;;;;;;5088382;28;20131;-71
2022/12/03 00:43:34;;;;;;;44.85;26.50;;;2.70;99.90;;;;;;5082157;28;20111;-70
2022/12/03 00:45:59;;;;;;;40.53;22.70;;;2.70;99.90;;;;;;5095957;28;20047;-71
2022/12/03 00:48:25;;;;;;;43.28;24.40;;;2.70;99.90;;;;;;5079423;28;20048;-71
2022/12/03 00:50:51;;;;;;;43.53;23.63;;;2.70;99.90;;;;;;5078071;28;20518;-71
2022/12/03 00:53:16;;;;;;;42.65;21.77;;;2.80;99.90;;;;;;5093070;28;20044;-70
2022/12/03 00:55:42;;;;;;;43.78;24.23;;;2.80;99.90;;;;;;5071222;28;20048;-71
2022/12/03 00:58:08;;;;;;;43.25;24.42;;;3.70;99.90;;;;;;5099129;28;20089;-71
2022/12/03 01:00:34;;;;;;;41.45;23.75;;;2.80;99.90;;;;;;5088289;28;20059;-71
2022/12/03 01:03:00;;;;;;;42.38;23.70;;;2.80;99.90;;;;;;5081111;28;20043;-71
2022/12/03 01:05:26;;;;;;;44.67;26.63;;;3.10;99.90;;;;;;5089291;28;20119;-71
2022/12/03 01:07:52;;;;;;;43.78;24.38;;;2.90;99.90;;;;;;5076152;28;20115;-71
2022/12/03 01:10:18;;;;;;;41.55;24.20;;;3.00;99.90;;;;;;5066502;28;20044;-71
2022/12/03 01:12:44;;;;;;;43.92;26.50;;;2.90;99.90;;;;;;5086427;28;20113;-71
2022/12/03 01:15:10;;;;;;;39.80;19.67;;;2.90;99.90;;;;;;5065725;28;20135;-72
2022/12/03 01:17:36;;;;;;;42.55;24.00;;;3.80;99.90;;;;;;5088226;28;20054;-71
2022/12/03 01:20:04;;;;;;;42.95;24.67;;;3.60;99.90;;;;;;5070968;28;20556;-71
2022/12/03 01:22:30;;;;;;;40.03;24.40;;;3.00;99.90;;;;;;5082089;28;20051;-71
2022/12/03 01:24:55;;;;;;;38.35;22.92;;;3.10;99.90;;;;;;5097562;28;20050;-72
2022/12/03 01:27:21;;;;;;;41.78;24.23;;;3.10;99.90;;;;;;5060995;28;20124;-71
2022/12/03 01:29:47;;;;;;;36.88;21.17;;;3.10;99.90;;;;;;5078273;28;20101;-72
2022/12/03 01:32:15;;;;;;;36.33;22.50;;;3.10;99.90;;;;;;5058192;28;20085;-71
2022/12/03 01:34:42;;;;;;;31.13;18.20;;;3.20;99.90;;;;;;5077810;28;20048;-72
2022/12/03 01:37:08;;;;;;;37.10;21.80;;;3.10;99.90;;;;;;5080348;28;20047;-71
2022/12/03 01:39:34;;;;;;;35.97;20.63;;;3.20;99.90;;;;;;5083535;28;20054;-71
2022/12/03 01:42:01;;;;;;;34.80;21.38;;;3.20;99.90;;;;;;5069797;28;20044;-70
2022/12/03 01:44:31;;;;;;;32.42;20.40;;;3.20;99.90;;;;;;5091291;28;20131;-71
2022/12/03 01:47:00;;;;;;;35.22;21.70;;;3.20;99.90;;;;;;5078140;28;20044;-72
2022/12/03 01:49:32;;;;;;;33.78;22.48;;;3.20;99.90;;;;;;5095046;28;20058;-72
2022/12/03 01:51:59;;;;;;;33.70;20.67;;;3.20;99.90;;;;;;5063777;28;20036;-71
2022/12/03 01:54:46;;;;;;;34.78;21.65;;;3.20;99.90;;;;;;5061527;28;20056;-71
2022/12/03 01:57:38;;;;;;;36.22;21.88;;;3.20;99.90;;;;;;5090229;28;20047;-72
2022/12/03 02:00:06;;;;;;;35.53;22.85;;;3.20;99.90;;;;;;5077629;28;20104;-71
2022/12/03 02:02:32;;;;;;;35.83;22.67;;;3.20;99.90;;;;;;5077723;28;20103;-71
2022/12/03 02:04:58;;;;;;;35.70;22.00;;;3.20;99.90;;;;;;5056615;28;20508;-72
2022/12/03 02:07:26;;;;;;;35.58;22.80;;;3.30;99.90;;;;;;5071476;28;20058;-71
2022/12/03 02:09:53;;;;;;;35.60;22.70;;;3.10;99.90;;;;;;5077951;28;20428;-71
2022/12/03 02:12:26;;;;;;;34.15;22.35;;;3.40;99.90;;;;;;5069423;28;20044;-70
2022/12/03 02:14:52;;;;;;;34.08;21.67;;;3.30;99.90;;;;;;5091420;28;20463;-72
2022/12/03 02:17:18;;;;;;;36.28;23.05;;;3.20;99.90;;;;;;5088932;28;20097;-70
2022/12/03 02:19:45;;;;;;;36.35;22.83;;;4.20;99.90;;;;;;5077282;28;20040;-73
2022/12/03 02:22:30;;;;;;;34.63;22.17;;;3.20;99.90;;;;;;5065745;28;20040;-71
2022/12/03 02:25:16;;;;;;;36.55;23.35;;;3.20;99.90;;;;;;5076351;28;20043;-72
2022/12/03 02:27:43;;;;;;;35.65;22.25;;;3.20;99.90;;;;;;5097746;28;20462;-72
2022/12/03 02:30:10;;;;;;;32.92;19.90;;;3.40;99.90;;;;;;5080307;28;20055;-71
2022/12/03 02:32:36;;;;;;;33.85;22.75;;;3.20;99.90;;;;;;5086554;28;20044;-71
2022/12/03 02:35:02;;;;;;;36.92;24.02;;;3.20;99.90;;;;;;5092779;28;20062;-71
2022/12/03 02:37:36;;;;;;;33.92;22.33;;;3.20;99.90;;;;;;5094076;28;20412;-71
2022/12/03 02:40:06;;;;;;;36.90;22.80;;;3.20;99.90;;;;;;5073471;28;20048;-71
2022/12/03 02:42:35;;;;;;;37.05;22.15;;;3.20;99.90;;;;;;5062540;28;20055;-71
2022/12/03 02:45:19;;;;;;;34.22;22.05;;;3.20;99.90;;;;;;5061658;28;20090;-71
2022/12/03 02:47:55;;;;;;;34.70;23.23;;;3.20;99.90;;;;;;5076733;28;20130;-71
2022/12/03 02:50:33;;;;;;;34.85;21.83;;;3.20;99.90;;;;;;5083019;28;20063;-71
2022/12/03 02:53:01;;;;;;;35.15;22.58;;;3.20;99.90;;;;;;5074303;28;20047;-70
2022/12/03 02:55:29;;;;;;;35.70;21.55;;;3.60;99.90;;;;;;5082387;28;20115;-71
2022/12/03 02:57:55;;;;;;;35.13;22.98;;;3.10;99.90;;;;;;5076891;28;20044;-70
2022/12/03 03:00:21;;;;;;;36.35;22.70;;;3.50;99.90;;;;;;5091639;28;20079;-72
2022/12/03 03:02:49;;;;;;;36.13;22.88;;;3.10;99.90;;;;;;5097174;28;20075;-71
2022/12/03 03:05:17;;;;;;;35.63;22.80;;;3.10;99.90;;;;;;5085889;28;20070;-71
2022/12/03 03:07:43;;;;;;;29.73;18.08;;;3.10;99.90;;;;;;5082239;28;20040;-72
2022/12/03 03:10:14;;;;;;;35.03;22.38;;;3.10;99.90;;;;;;5088919;28;20166;-71
2022/12/03 03:12:40;;;;;;;36.55;23.30;;;4.00;99.90;;;;;;5075985;28;20551;-72
2022/12/03 03:15:08;;;;;;;37.50;23.17;;;3.00;99.90;;;;;;5090156;28;20071;-72
2022/12/03 03:17:34;;;;;;;37.35;23.17;;;2.90;99.90;;;;;;5076408;28;20058;-71
2022/12/03 03:19:59;;;;;;;34.55;22.95;;;2.90;99.90;;;;;;5087335;28;20048;-73
2022/12/03 03:22:33;;;;;;;33.88;21.52;;;2.90;99.90;;;;;;5077803;28;20472;-71
2022/12/03 03:24:59;;;;;;;35.35;22.33;;;2.90;99.90;;;;;;5050608;28;20079;-72
2022/12/03 03:27:26;;;;;;;33.95;20.05;;;2.80;99.90;;;;;;5092871;28;20047;-71
2022/12/03 03:29:51;;;;;;;37.85;23.00;;;2.90;99.90;;;;;;5112805;28;20445;-70
2022/12/03 03:32:17;;;;;;;36.20;22.48;;;2.90;99.90;;;;;;5095410;28;20088;-70
2022/12/03 03:34:43;;;;;;;32.53;20.55;;;2.80;99.90;;;;;;5113386;28;20466;-71
2022/12/03 03:37:09;;;;;;;35.17;22.42;;;2.80;99.90;;;;;;5094977;28;20560;-71
2022/12/03 03:39:34;;;;;;;36.92;23.42;;;2.80;99.90;;;;;;5096001;28;20494;-71
2022/12/03 03:42:00;;;;;;;35.85;22.20;;;2.70;99.90;;;;;;5084223;28;20529;-71
2022/12/03 03:44:27;;;;;;;35.22;22.40;;;2.70;99.90;;;;;;5058552;28;20537;-71
2022/12/03 03:46:54;;;;;;;34.88;21.95;;;2.70;99.90;;;;;;5075760;28;20040;-72
2022/12/03 03:49:20;;;;;;;34.33;21.85;;;2.80;99.90;;;;;;5108587;28;20052;-72
2022/12/03 03:51:46;;;;;;;35.47;20.92;;;2.80;99.90;;;;;;5065859;28;20044;-71
2022/12/03 03:54:12;;;;;;;33.70;21.25;;;2.70;99.90;;;;;;5081205;28;20052;-71
2022/12/03 03:56:38;;;;;;;35.88;22.25;;;2.70;99.90;;;;;;5070628;28;20094;-72
2022/12/03 03:59:04;;;;;;;35.72;22.05;;;2.70;99.90;;;;;;5075671;28;20082;-70
2022/12/03 04:01:30;;;;;;;34.65;21.35;;;2.80;99.90;;;;;;5065205;28;20051;-71
2022/12/03 04:03:58;;;;;;;35.63;21.63;;;2.80;99.90;;;;;;5057684;28;20477;-70
2022/12/03 04:06:25;;;;;;;37.75;23.20;;;2.70;99.90;;;;;;5094580;28;20047;-71
2022/12/03 04:08:51;;;;;;;36.33;22.85;;;2.70;99.90;;;;;;5081331;28;20119;-72
2022/12/03 04:14:01;;;;;;;33.00;19.95;;;2.70;99.90;;;;;;5060740;28;20566;-71
2022/12/03 04:16:26;;;;;;;36.08;21.25;;;3.00;99.90;;;;;;5075400;28;20130;-72
2022/12/03 04:18:52;;;;;;;35.80;22.67;;;2.70;99.90;;;;;;5068070;28;20403;-71
2022/12/03 04:24:06;;;;;;;34.88;22.10;;;2.70;99.90;;;;;;5095459;28;20130;-71
2022/12/03 04:29:16;;;;;;;35.65;21.42;;;2.70;99.90;;;;;;5112078;28;20461;-71
2022/12/03 04:37:10;;;;;;;35.97;22.60;;;2.60;99.90;;;;;;5084999;28;20047;-70
2022/12/03 04:39:36;;;;;;;39.00;22.85;;;2.90;99.90;;;;;;5073943;28;20085;-71
2022/12/03 04:42:02;;;;;;;38.40;22.63;;;2.60;99.90;;;;;;5095227;28;20052;-72
2022/12/03 04:44:37;;;;;;;36.20;22.70;;;2.60;99.90;;;;;;5081121;28;20052;-71
2022/12/03 04:47:06;;;;;;;37.63;21.73;;;2.60;99.90;;;;;;5074968;28;20051;-71
2022/12/03 04:49:33;;;;;;;36.78;23.25;;;2.60;99.90;;;;;;5069548;28;20121;-71
2022/12/03 04:51:59;;;;;;;33.40;20.15;;;3.20;99.90;;;;;;5073605;28;20044;-71
2022/12/03 04:54:26;;;;;;;37.22;24.60;;;2.60;99.90;;;;;;5082179;28;20060;-71
2022/12/03 04:56:51;;;;;;;37.38;22.77;;;3.60;99.90;;;;;;5088715;28;20057;-70
2022/12/03 04:59:17;;;;;;;36.80;22.00;;;2.90;99.90;;;;;;5095096;28;20494;-71
2022/12/03 05:01:43;;;;;;;36.30;22.55;;;2.60;99.90;;;;;;5083142;28;20044;-71
2022/12/03 05:04:10;;;;;;;35.08;21.08;;;2.60;99.90;;;;;;5072204;28;20126;-71
2022/12/03 05:06:35;;;;;;;37.15;23.55;;;2.60;99.90;;;;;;5040418;28;20101;-72
2022/12/03 05:09:01;;;;;;;36.42;22.17;;;2.60;99.90;;;;;;5093082;28;20048;-71
2022/12/03 05:11:27;;;;;;;36.55;22.23;;;2.70;99.90;;;;;;5078134;28;20043;-70
2022/12/03 05:13:53;;;;;;;35.35;20.85;;;2.60;99.90;;;;;;5095226;28;20126;-71
2022/12/03 05:16:18;;;;;;;34.55;21.75;;;2.60;99.90;;;;;;5077623;28;20184;-71
2022/12/03 05:18:44;;;;;;;35.83;23.58;;;2.60;99.90;;;;;;5066663;28;20076;-72
2022/12/03 05:21:10;;;;;;;35.28;21.83;;;2.60;99.90;;;;;;5091600;28;20098;-72
2022/12/03 05:23:35;;;;;;;34.40;21.08;;;2.50;99.90;;;;;;5075157;28;20086;-70
2022/12/03 05:26:01;;;;;;;36.72;21.80;;;2.50;99.90;;;;;;5071336;28;20399;-70
2022/12/03 05:28:27;;;;;;;36.28;22.60;;;2.60;99.90;;;;;;5095204;28;20126;-71
2022/12/03 05:30:52;;;;;;;38.45;22.60;;;2.60;99.90;;;;;;5080495;28;20045;-72
2022/12/03 05:33:19;;;;;;;37.65;22.73;;;2.50;99.90;;;;;;5082201;28;20047;-72
2022/12/03 05:35:45;;;;;;;35.00;21.83;;;2.60;99.90;;;;;;5077473;28;20051;-71
2022/12/03 05:38:10;;;;;;;32.10;19.10;;;2.50;99.90;;;;;;5078091;28;20484;-71
2022/12/03 05:40:36;;;;;;;38.13;23.48;;;2.50;99.90;;;;;;5088011;28;20166;-71
2022/12/03 05:43:02;;;;;;;34.70;21.02;;;2.50;99.90;;;;;;5078934;28;20117;-71
2022/12/03 05:45:48;;;;;;;38.92;22.48;;;3.20;99.90;;;;;;5080884;28;20086;-71
2022/12/03 05:48:15;;;;;;;38.20;22.67;;;2.60;99.90;;;;;;5077226;28;20063;-71
2022/12/03 05:50:44;;;;;;;37.55;22.95;;;3.00;99.90;;;;;;5060513;28;20086;-72
2022/12/03 05:53:10;;;;;;;39.15;24.02;;;3.50;99.90;;;;;;5080823;28;20100;-71
2022/12/03 05:55:36;;;;;;;38.05;24.02;;;2.50;99.90;;;;;;5094479;28;20101;-71
2022/12/03 05:58:02;;;;;;;40.30;24.52;;;2.50;99.90;;;;;;5087295;28;20433;-71
2022/12/03 06:00:31;;;;;;;40.35;24.45;;;2.50;99.90;;;;;;5079805;28;20151;-71
2022/12/03 06:02:57;;;;;;;39.08;23.45;;;2.40;99.90;;;;;;5077601;28;20051;-72
2022/12/03 06:05:23;;;;;;;35.55;19.92;;;3.40;99.90;;;;;;5093978;28;20078;-72
2022/12/03 06:07:50;;;;;;;42.45;25.00;;;2.70;99.90;;;;;;5077333;28;20487;-71
2022/12/03 06:10:19;;;;;;;45.55;25.58;;;2.50;99.90;;;;;;5085705;28;20052;-72
2022/12/03 06:12:45;;;;;;;41.08;24.08;;;2.50;99.90;;;;;;5067154;28;20043;-71
2022/12/03 06:15:11;;;;;;;42.63;24.60;;;2.50;99.90;;;;;;5077619;28;20036;-71
2022/12/03 06:17:37;;;;;;;40.22;24.27;;;2.50;99.90;;;;;;5063273;28;20052;-71
2022/12/03 06:20:03;;;;;;;41.55;24.75;;;2.50;99.90;;;;;;5089193;28;20101;-71
2022/12/03 06:22:29;;;;;;;40.45;24.02;;;2.50;99.90;;;;;;5090226;28;20055;-71
2022/12/03 06:24:55;;;;;;;39.78;24.33;;;2.50;99.90;;;;;;5084199;28;20483;-72
2022/12/03 06:27:20;;;;;;;40.83;25.00;;;2.60;99.90;;;;;;5067904;28;20039;-71
2022/12/03 06:29:46;;;;;;;42.85;23.95;;;2.60;99.90;;;;;;5048577;28;20123;-71
2022/12/03 06:32:12;;;;;;;43.67;24.65;;;2.50;99.90;;;;;;5102881;28;20084;-71
2022/12/03 06:34:37;;;;;;;42.75;24.63;;;2.60;99.90;;;;;;5094981;28;20044;-71
2022/12/03 06:37:03;;;;;;;41.88;25.67;;;2.50;99.90;;;;;;5083792;28;20492;-71
2022/12/03 06:39:29;;;;;;;45.97;27.25;;;2.60;99.90;;;;;;5115512;28;20077;-71
2022/12/03 06:41:54;;;;;;;41.63;25.73;;;2.50;99.90;;;;;;5066659;28;20047;-71
2022/12/03 06:44:20;;;;;;;44.55;25.25;;;2.40;99.90;;;;;;5083055;28;20131;-71
2022/12/03 06:46:46;;;;;;;46.10;26.60;;;2.40;99.90;;;;;;5064773;28;20479;-71
2022/12/03 06:49:12;;;;;;;45.75;25.33;;;2.30;99.90;;;;;;5057011;28;20054;-72
2022/12/03 06:51:37;;;;;;;41.95;23.92;;;2.30;99.90;;;;;;5107228;28;20075;-71
2022/12/03 06:54:04;;;;;;;46.20;26.15;;;2.30;99.90;;;;;;5059291;28;20047;-71
2022/12/03 06:56:31;;;;;;;47.67;27.92;;;2.20;99.90;;;;;;5076223;28;20056;-71
2022/12/03 06:58:56;;;;;;;47.03;27.20;;;2.20;99.90;;;;;;5076207;28;20067;-73
2022/12/03 07:01:22;;;;;;;42.83;24.13;;;2.10;99.90;;;;;;5068944;28;20098;-71
2022/12/03 07:03:48;;;;;;;45.92;25.15;;;2.20;99.90;;;;;;5057934;28;20074;-71
2022/12/03 07:06:13;;;;;;;43.08;23.55;;;2.30;99.90;;;;;;5066661;28;20101;-71
2022/12/03 07:08:39;;;;;;;41.42;23.10;;;2.10;99.90;;;;;;5078577;28;20047;-71
2022/12/03 07:11:29;;;;;;;48.50;27.58;;;2.20;99.90;;;;;;5092992;28;20392;-72
2022/12/03 07:13:51;;;;;;;46.28;26.42;;;2.10;99.90;;;;;;5076411;28;20411;-71
2022/12/03 07:16:17;;;;;;;42.28;24.52;;;2.10;99.90;;;;;;5064194;28;20039;-72
2022/12/03 07:18:43;;;;;;;45.03;23.92;;;2.10;99.90;;;;;;5079051;28;20051;-71
2022/12/03 07:21:08;;;;;;;49.10;26.40;;;2.10;99.90;;;;;;5076287;28;20482;-71
2022/12/03 07:23:34;;;;;;;49.22;29.00;;;2.70;99.90;;;;;;5082321;28;20059;-72
2022/12/03 07:26:00;;;;;;;49.60;28.08;;;3.00;99.90;;;;;;5090878;28;20051;-71
2022/12/03 07:28:25;;;;;;;48.17;28.02;;;2.10;99.90;;;;;;5076007;28;20125;-72
2022/12/03 07:30:51;;;;;;;48.97;28.17;;;2.00;99.90;;;;;;5089483;28;20039;-72
2022/12/03 07:33:17;;;;;;;46.38;26.30;;;2.90;99.90;;;;;;5079842;28;20040;-71
2022/12/03 07:35:42;;;;;;;44.28;25.02;;;2.00;99.90;;;;;;5073024;28;20495;-71
2022/12/03 07:38:08;;;;;;;45.10;24.70;;;2.00;99.90;;;;;;5058013;28;20101;-71
2022/12/03 07:40:34;;;;;;;44.85;25.00;;;3.00;99.90;;;;;;5077248;28;20036;-70
2022/12/03 07:42:59;;;;;;;46.55;27.55;;;2.00;99.90;;;;;;5083633;28;20052;-71
2022/12/03 07:45:25;;;;;;;34.78;18.02;;;1.90;99.90;;;;;;5058521;28;20116;-72
2022/12/03 07:47:51;;;;;;;49.58;28.88;;;2.10;99.90;;;;;;5083949;28;20046;-71
2022/12/03 07:50:16;;;;;;;53.10;29.13;;;2.20;99.90;;;;;;5091423;28;20101;-71
2022/12/03 07:52:42;;;;;;;44.45;22.25;;;1.90;99.90;;;;;;5088425;28;20040;-72
2022/12/03 07:55:09;;;;;;;46.08;26.85;;;2.20;99.90;;;;;;5073241;28;20040;-71
2022/12/03 07:57:35;;;;;;;49.58;27.25;;;2.60;99.90;;;;;;5074220;28;20047;-71
2022/12/03 08:00:00;;;;;;;45.15;25.75;;;2.00;99.90;;;;;;5090115;28;20047;-72
2022/12/03 08:02:26;;;;;;;48.38;26.75;;;1.90;99.90;;;;;;5089840;28;20039;-71
2022/12/03 08:04:52;;;;;;;46.08;24.00;;;2.30;99.90;;;;;;5092159;28;20491;-71
2022/12/03 08:07:17;;;;;;;50.55;27.48;;;1.80;99.90;;;;;;5094194;28;20038;-71
2022/12/03 08:09:43;;;;;;;48.10;27.00;;;1.80;99.90;;;;;;5092261;28;20483;-70
2022/12/03 08:12:38;;;;;;;49.20;27.90;;;1.80;99.90;;;;;;5072268;28;20441;-71
2022/12/03 08:15:19;;;;;;;45.05;24.60;;;1.70;99.90;;;;;;5076340;28;20057;-72
2022/12/03 08:17:50;;;;;;;50.20;27.17;;;1.80;99.90;;;;;;5102636;28;20055;-72
2022/12/03 08:20:21;;;;;;;48.30;26.77;;;1.80;99.90;;;;;;5101321;28;20055;-71
2022/12/03 08:22:50;;;;;;;46.67;26.65;;;1.80;99.90;;;;;;5091677;28;20035;-71
2022/12/03 08:25:29;;;;;;;46.53;26.80;;;1.80;99.90;;;;;;5067808;28;20044;-70
2022/12/03 08:28:09;;;;;;;45.28;27.05;;;1.80;99.90;;;;;;5081273;28;20559;-70
2022/12/03 08:30:35;;;;;;;46.13;24.88;;;1.80;99.90;;;;;;5090814;28;20086;-71
2022/12/03 08:33:05;;;;;;;43.53;24.77;;;2.70;99.90;;;;;;5064244;28;20072;-71
2022/12/03 08:35:31;;;;;;;45.58;25.45;;;1.80;99.90;;;;;;5081163;28;20047;-71
2022/12/03 08:38:18;;;;;;;45.03;26.42;;;1.70;99.90;;;;;;5066134;28;20040;-71
2022/12/03 08:40:45;;;;;;;48.08;27.00;;;1.80;99.90;;;;;;5104628;28;20089;-71
2022/12/03 08:43:23;;;;;;;45.33;25.23;;;1.70;99.90;;;;;;5084046;28;20060;-72
2022/12/03 08:45:56;;;;;;;42.40;23.00;;;1.80;99.90;;;;;;5067544;28;20040;-71
2022/12/03 08:48:28;;;;;;;46.35;25.90;;;1.80;99.90;;;;;;5074801;28;20105;-72
2022/12/03 08:50:57;;;;;;;43.58;24.38;;;1.70;99.90;;;;;;5083030;28;20032;-71
2022/12/03 08:53:33;;;;;;;41.70;22.88;;;1.90;99.90;;;;;;5092365;28;20564;-71
2022/12/03 08:56:04;;;;;;;44.17;25.15;;;1.80;99.90;;;;;;5064260;28;20047;-71
2022/12/03 08:58:40;;;;;;;45.65;26.08;;;1.70;99.90;;;;;;5093882;28;20047;-71
2022/12/03 09:01:09;;;;;;;43.35;24.92;;;1.80;99.90;;;;;;5081498;28;20455;-71
2022/12/03 09:03:35;;;;;;;41.83;23.77;;;1.70;99.90;;;;;;5068919;28;20044;-71
2022/12/03 09:06:01;;;;;;;42.15;24.52;;;1.80;99.90;;;;;;5081228;28;20500;-71
2022/12/03 09:08:27;;;;;;;38.22;21.85;;;1.80;99.90;;;;;;5069865;28;20094;-71
2022/12/03 09:10:53;;;;;;;43.92;25.02;;;1.90;99.90;;;;;;5087300;28;20070;-72
2022/12/03 09:13:18;;;;;;;40.45;24.65;;;2.10;99.90;;;;;;5061611;28;20154;-71
2022/12/03 09:15:44;;;;;;;43.30;26.00;;;1.90;99.90;;;;;;5063078;28;20093;-71
2022/12/03 09:18:10;;;;;;;41.75;22.65;;;1.80;99.90;;;;;;5092067;28;20047;-71
2022/12/03 09:20:35;;;;;;;43.85;25.38;;;1.90;99.90;;;;;;5089099;28;20047;-71
2022/12/03 09:23:01;;;;;;;45.35;27.27;;;1.90;99.90;;;;;;5068920;28;20040;-71
2022/12/03 09:25:27;;;;;;;43.78;25.80;;;1.90;99.90;;;;;;5071209;28;20048;-71
2022/12/03 09:27:52;;;;;;;44.13;26.10;;;1.90;99.90;;;;;;5081845;28;20035;-71
2022/12/03 09:30:18;;;;;;;46.60;28.05;;;2.20;99.90;;;;;;5086919;28;20138;-71
2022/12/03 09:32:44;;;;;;;47.58;26.98;;;1.90;99.90;;;;;;5077458;28;20059;-71
2022/12/03 09:35:09;;;;;;;50.45;29.17;;;2.00;99.90;;;;;;5094583;28;20051;-71
2022/12/03 09:37:35;;;;;;;48.83;29.38;;;2.00;99.90;;;;;;5098763;28;20486;-70
2022/12/03 09:40:01;;;;;;;50.67;29.15;;;2.00;99.90;;;;;;5078926;28;20040;-72
2022/12/03 09:42:27;;;;;;;53.20;28.95;;;2.30;99.90;;;;;;5080712;28;20182;-73
2022/12/03 09:44:53;;;;;;;49.13;27.00;;;2.20;99.90;;;;;;5074272;28;20492;-72
2022/12/03 09:47:19;;;;;;;46.42;27.45;;;2.10;99.90;;;;;;5103396;28;20044;-70
2022/12/03 09:49:45;;;;;;;44.20;25.38;;;2.10;99.90;;;;;;5085925;28;20052;-71
2022/12/03 09:52:17;;;;;;;47.75;28.20;;;2.10;99.90;;;;;;5084632;27;20039;-70
2022/12/03 09:54:43;;;;;;;48.97;28.42;;;2.10;99.90;;;;;;5072906;28;20040;-70
2022/12/03 09:57:12;;;;;;;41.42;21.17;;;2.20;99.90;;;;;;5078574;28;20044;-70
2022/12/03 09:59:38;;;;;;;47.50;27.25;;;2.30;99.90;;;;;;5077486;28;20048;-71
2022/12/03 10:02:27;;;;;;;50.13;28.58;;;2.20;99.90;;;;;;5087646;28;20168;-71
2022/12/03 10:04:52;;;;;;;48.65;28.00;;;2.10;99.90;;;;;;5077283;28;20126;-71
2022/12/03 10:07:19;;;;;;;47.95;29.33;;;2.30;99.90;;;;;;5068135;28;20177;-72
2022/12/03 10:09:45;;;;;;;46.17;28.27;;;2.20;99.90;;;;;;5083106;28;20125;-70
2022/12/03 10:12:12;;;;;;;51.38;29.70;;;2.20;99.90;;;;;;5102314;27;20553;-70
2022/12/03 10:14:39;;;;;;;46.78;26.70;;;2.30;99.90;;;;;;5092744;28;20057;-70
2022/12/03 10:17:05;;;;;;;49.65;29.23;;;2.20;99.90;;;;;;5091434;28;20042;-70
2022/12/03 10:19:34;;;;;;;46.85;28.50;;;2.20;99.90;;;;;;5098229;28;20044;-70
2022/12/03 10:21:59;;;;;;;44.30;25.85;;;2.10;99.90;;;;;;5087720;28;20047;-70
2022/12/03 10:24:29;;;;;;;39.45;21.35;;;2.00;99.90;;;;;;5075936;28;20123;-70
2022/12/03 10:26:57;;;;;;;49.53;29.13;;;2.10;99.90;;;;;;5099859;28;20040;-70
2022/12/03 10:29:29;;;;;;;48.05;29.17;;;2.00;99.90;;;;;;5085508;27;20036;-70
2022/12/03 10:31:54;;;;;;;46.90;29.15;;;2.00;99.90;;;;;;5089674;28;20391;-69
2022/12/03 10:34:26;;;;;;;53.20;33.00;;;2.00;99.90;;;;;;5102775;27;20048;-70
2022/12/03 10:37:15;;;;;;;45.53;27.27;;;1.90;99.90;;;;;;5097686;27;20069;-71
2022/12/03 10:40:10;;;;;;;47.20;28.55;;;2.00;99.90;;;;;;5074211;28;20054;-70
2022/12/03 10:42:39;;;;;;;44.10;25.83;;;2.00;99.90;;;;;;5089335;27;20123;-71
2022/12/03 10:45:13;;;;;;;45.05;26.45;;;2.00;99.90;;;;;;5088965;27;20500;-70
2022/12/03 10:47:38;;;;;;;42.17;24.20;;;2.20;99.90;;;;;;5098202;28;20527;-69
2022/12/03 10:50:14;;;;;;;44.83;27.42;;;2.30;99.90;;;;;;5078952;28;20131;-70
2022/12/03 10:52:39;;;;;;;41.30;24.63;;;2.20;99.90;;;;;;5085479;28;20069;-70
2022/12/03 10:55:05;;;;;;;45.15;26.48;;;2.30;99.90;;;;;;5081462;27;20043;-70
2022/12/03 10:57:31;;;;;;;47.42;29.17;;;2.30;99.90;;;;;;5098968;27;20043;-70
2022/12/03 10:59:57;;;;;;;45.60;27.90;;;2.30;99.90;;;;;;5105713;28;20051;-71
2022/12/03 11:02:23;;;;;;;42.33;25.10;;;3.00;99.90;;;;;;5066476;28;20036;-71
2022/12/03 11:04:50;;;;;;;48.40;29.58;;;2.30;99.90;;;;;;5098269;27;20051;-72
2022/12/03 11:07:18;;;;;;;45.45;28.20;;;2.30;99.90;;;;;;5078922;27;20071;-71
2022/12/03 11:09:50;;;;;;;42.75;25.48;;;2.30;99.90;;;;;;5078883;28;20043;-71
2022/12/03 11:12:25;;;;;;;36.87;21.33;;;2.30;99.90;;;;;;5083655;28;20044;-70
2022/12/03 11:14:51;;;;;;;45.10;26.77;;;2.30;99.90;;;;;;5087444;28;20488;-69
2022/12/03 11:17:39;;;;;;;46.97;27.80;;;2.40;99.90;;;;;;5085915;27;20051;-72
2022/12/03 11:20:28;;;;;;;63.45;36.58;;;2.40;99.90;;;;;;5076630;28;20123;-70
2022/12/03 11:22:55;;;;;;;46.50;27.98;;;2.40;99.90;;;;;;5086602;28;20105;-70
2022/12/03 11:25:24;;;;;;;46.17;28.52;;;2.40;99.90;;;;;;5095354;28;20048;-70
2022/12/03 11:28:11;;;;;;;47.75;28.48;;;2.50;99.90;;;;;;5092895;27;20043;-70
2022/12/03 11:30:49;;;;;;;45.67;26.75;;;2.50;99.90;;;;;;5092121;28;20044;-71
2022/12/03 11:33:37;;;;;;;49.38;27.60;;;2.80;99.90;;;;;;5084862;28;20051;-70
2022/12/03 11:36:03;;;;;;;44.30;26.42;;;2.60;99.90;;;;;;5082338;28;20035;-70
2022/12/03 11:38:42;;;;;;;48.33;28.67;;;2.60;99.90;;;;;;5087255;28;20696;-70
2022/12/03 11:41:12;;;;;;;45.35;27.83;;;2.60;99.90;;;;;;5088446;27;20048;-70
2022/12/03 11:43:54;;;;;;;47.20;29.15;;;2.60;99.90;;;;;;5089462;28;20055;-72
2022/12/03 11:46:38;;;;;;;45.22;26.42;;;2.70;99.90;;;;;;5083750;28;20052;-70
2022/12/03 11:49:22;;;;;;;41.90;23.35;;;2.60;99.90;;;;;;5074731;28;20507;-70
2022/12/03 11:51:48;;;;;;;44.17;26.15;;;2.70;99.90;;;;;;5078970;28;20311;-70
2022/12/03 11:54:16;;;;;;;46.33;29.08;;;2.60;99.90;;;;;;5072055;28;20365;-71
2022/12/03 11:56:47;;;;;;;43.35;25.55;;;2.40;99.90;;;;;;5070381;28;20403;-70
2022/12/03 11:59:14;;;;;;;48.40;28.10;;;2.40;99.90;;;;;;5094718;28;20040;-70
2022/12/03 12:01:40;;;;;;;44.63;27.13;;;2.90;99.90;;;;;;5074935;28;20415;-70
2022/12/03 12:04:24;;;;;;;30.17;14.77;;;2.80;99.90;;;;;;5062054;28;20067;-72
2022/12/03 12:06:50;;;;;;;50.25;30.20;;;2.30;99.90;;;;;;5088170;28;20442;-69
2022/12/03 12:09:54;;;;;;;46.22;28.45;;;2.10;99.90;;;;;;5072591;28;20040;-70
2022/12/03 12:12:28;;;;;;;48.08;28.67;;;2.00;99.90;;;;;;5074730;28;20050;-71
2022/12/03 12:14:54;;;;;;;46.83;27.88;;;2.20;99.90;;;;;;5069833;28;20414;-70
2022/12/03 12:17:35;;;;;;;48.28;28.38;;;2.00;99.90;;;;;;5077226;28;20055;-71
2022/12/03 12:20:10;;;;;;;48.33;27.58;;;2.00;99.90;;;;;;5080115;28;20039;-71
2022/12/03 12:22:36;;;;;;;44.85;23.67;;;1.80;99.90;;;;;;5093080;28;20044;-71
2022/12/03 12:25:28;;;;;;;43.10;25.17;;;1.80;99.90;;;;;;5058554;28;20094;-71
2022/12/03 12:27:54;;;;;;;47.30;27.85;;;1.90;99.90;;;;;;5077757;28;20059;-69
2022/12/03 12:30:21;;;;;;;47.60;27.08;;;1.80;99.90;;;;;;5108944;28;20479;-70
2022/12/03 12:32:52;;;;;;;46.53;25.10;;;1.80;99.90;;;;;;5077946;28;20050;-70
2022/12/03 12:35:29;;;;;;;44.33;24.48;;;2.60;99.90;;;;;;5079613;28;20454;-71
2022/12/03 12:38:01;;;;;;;49.70;29.88;;;1.80;99.90;;;;;;5088063;28;20100;-69
2022/12/03 12:40:32;;;;;;;48.72;28.58;;;2.00;99.90;;;;;;5100156;28;20048;-70
2022/12/03 12:43:07;;;;;;;48.70;29.70;;;1.80;99.90;;;;;;5084221;28;20101;-71
2022/12/03 12:45:40;;;;;;;45.05;27.08;;;2.70;99.90;;;;;;5076176;28;20425;-71
2022/12/03 12:48:11;;;;;;;52.03;30.45;;;1.90;99.90;;;;;;5083434;28;20040;-71
2022/12/03 12:50:38;;;;;;;50.13;29.87;;;1.90;99.90;;;;;;5077658;28;20044;-71
2022/12/03 12:53:10;;;;;;;49.05;30.02;;;1.90;99.90;;;;;;5065186;28;20050;-70
2022/12/03 12:55:37;;;;;;;49.88;29.88;;;1.90;99.90;;;;;;5079984;28;20039;-70
2022/12/03 12:58:10;;;;;;;52.97;30.52;;;2.20;99.90;;;;;;5087753;28;20058;-71